AirNav   TITAN Aviation Fuels
 
 766 users online  

1J9 Fort Walton Beach Airport
Navarre, Florida, USA

GOING TO NAVARRE?


FAA INFORMATION EFFECTIVE 20 MAY 2021

Location

FAA Identifier: 1J9
Lat/Long: 30-24-22.7000N 086-49-45.1000W
30-24.378333N 086-49.751667W
30.4063056,-86.8291944
(estimated)
Elevation: 22 ft. / 6.7 m (surveyed)
Variation: 01E (1985)
From city: 2 miles E of NAVARRE, FL
Time zone: UTC -5 (UTC -6 during Standard Time)
Zip code: 32566

Airport Operations

Airport use: Open to the public
Activation date: 05/1969
Control tower: no
ARTCC: JACKSONVILLE CENTER
FSS: GAINESVILLE FLIGHT SERVICE STATION
NOTAMs facility: GNV (NOTAM-D service available)
Attendance: 1000-DUSK
Wind indicator: yes
Segmented circle: no

Airport Communications

CTAF/UNICOM: 122.7
WX ASOS at DTS (19 nm E): 133.925 (850-654-7128)
WX ASOS at PNS (19 nm W): 121.25 (850-436-4799)
WX ASOS at NDZ (20 nm NW): PHONE 850-623-7210

Nearby radio navigation aids

VOR radial/distance  VOR name  Freq  Var
CEWr194/26.4CRESTVIEW VORTAC115.9003E
NUNr098/(26.5)SAUFLEY VOR108.8001E

 
NDB name  Hdg/Dist  Freq  Var  ID
PICKENS098/18.232602WPKZ .--. -.- --..

Airport Services

Airframe service: NONE
Powerplant service: NONE
Bottled oxygen: NONE
Bulk oxygen: NONE

Runway Information

Runway 18/36

Dimensions: 2100 x 65 ft. / 640 x 20 m
Surface: turf, in poor condition
BARE SPOTS SOFT & SANDY S OF MID POINT.
Runway edge markings: WHITE CONES.
Operational restrictions: DEP RWY 18; ARR RWY 36. RWY SLOPES TO 2 FT AT S END. UNLGTD BRUSH, TREES, PRKG & BLDG 65-125 FT W OF CNTRLN FULL LEN.
RUNWAY 18  RUNWAY 36
Latitude: 30-24.551792N30-24.205292N
Longitude: 086-49.750332W086-49.754368W
Elevation: 22.0 ft.2.0 ft.
Traffic pattern: leftleft
Runway heading: 180 magnetic, 181 true000 magnetic, 001 true
Markings: NSTDNSTD
Obstructions: 15 ft. bldg, 87 ft. from runway, 45 ft. left of centerline, 6:1 slope to clear3 ft. brush, 57 ft. from runway, 45 ft. right of centerline, 20:1 slope to clear

Airport Ownership and Management from official FAA records

Ownership: Privately-owned
Owner: BOOMER AVIATION INC.
P.O. BOX 1075
FORT WALTON, FL 32549
Phone 850-244-1313
Manager: SANDY WILLIAMS
P.O. BOX 1075, P.O. BOX
FT WALTON BEACH, FL 32549
Phone (850) 244-1313

Airport Operational Statistics

Aircraft based on the field: 8
Single engine airplanes: 8
    
Aircraft operations: avg 22/day *
91% local general aviation
9% transient general aviation
* for 12-month period ending 06 March 2018

Additional Remarks

BANNER TOWING.
HEL MORE THAN 2500 LB NA.
FOR CD CTC EGLIN APCH 850-882-9152 OR 850-882-9151.

Instrument Procedures

There are no published instrument procedures at 1J9.

Some nearby airports with instrument procedures:

KHRT - Hurlburt Field Airport (7 nm E)
2R4 - Peter Prince Field Airport (16 nm NW)
KVPS - Eglin Air Force Base/Destin-Fort Walton Beach Airport (16 nm E)
KDTS - Destin Executive Airport (19 nm E)
KPNS - Pensacola International Airport (19 nm W)
KNDZ - Whiting Field Naval Air Station South (20 nm NW)
 
Loc | Ops | Rwys | IFR | FBO | Links
Com | Nav | Svcs | Stats | Notes
Area around 1J9 (Fort Walton Beach Airport)
 
Road maps at: MapQuest Bing Google
 
Aerial photo
WARNING: Photo may not be current or correct
Aerial photo of 1J9 (Fort Walton Beach Airport)
Photo by Scott Jackson - PhotosFlorida.com
Photo taken 04-Oct-2007
looking north

Do you have a better or more recent aerial photo of Fort Walton Beach Airport that you would like to share? If so, please send us your photo.

 
Sectional chart

 
Airport distance calculator
Flying to Fort Walton Beach Airport? Find the distance to fly.

From to 1J9

Sunrise and sunset
Times for 13-Jun-2021
 Local
(UTC-5)
 Zulu
(UTC)
Morning civil twilight05:1810:18
Sunrise05:4610:46
Sunset19:4900:49
Evening civil twilight20:1701:17

Current date and time
Zulu (UTC)  14-Jun-2021 03:49:27
Local (UTC-5)  13-Jun-2021 22:49:27
 
METAR
KHRT 
8nm E 
140301Z 13004KT 10SM SCT035 BKN090 25/23 A2988 RMK AO2A LTG DSNT SW SLP120 $
KVPS 
17nm E 
140256Z 20007KT 10SM SCT100 SCT120 BKN190 26/23 A2984 RMK AO2A LTG DSTN SW TSB09E39 SLP106 ALSTG/SLP ESTMD RVRNO TSNO $
KDTS 
19nm E 
140253Z AUTO 21003KT 10SM FEW049 SCT060 BKN075 26/22 A2988 RMK AO2 LTG DSNT SW RAB42E47 SLP118 P0000 60000 T02560222 51022
KPNS 
19nm W 
140253Z 35010KT 10SM CLR 27/22 A2986 RMK AO2 LTG DSNT SE AND S SLP113 T02720217 50012
TAF
KHRT 
8nm E 
140200Z 1402/1508 27012KT 3200 SHRA BKN030 BKN200 QNH2982INS TEMPO 1401/1404 03015G20KT 1600 TSRA BKN020CB BECMG 1404/1405 36010KT 9999 NSW FEW040 BKN250 QNH2984INS TX35/1419Z TN24/1410Z
KVPS 
17nm E 
140215Z 1402/1507 30008KT 9999 VCTS SCT060CB BKN150 QNH2982INS TEMPO 1402/1404 36012G18KT 4800 -TSRA BKN040CB BECMG 1404/1405 VRB04KT 8000 BR FEW020 QNH2984INS BECMG 1414/1415 15008KT 9999 NSW SCT040 QNH2985INS BECMG 1423/1424 24006KT 9999 FEW060 QNH2988INS TX33/1421Z TN24/1410Z
KPNS 
19nm W 
131720Z 1318/1418 33008KT P6SM SKC FM132100 22009KT P6SM VCTS SCT045CB TEMPO 1321/1324 4SM TSRA BKN045CB BKN050 FM140000 17007KT P6SM VCTS BKN045CB FM140300 29004KT P6SM BKN070 PROB30 1403/1406 4SM TSRA OVC025CB
NOTAMs
Click for the latest NOTAMs
NOTAMs are issued by the DoD/FAA and will open in a separate window not controlled by AirNav.

 

 
 

Would you like to see your business listed on this page?

 If your business provides an interesting product or service to pilots, flight crews, aircraft, or users of the Fort Walton Beach Airport, you should consider listing it here.  To start the listing process, click on the button below
 
Add a business
 

Other Pages about Fort Walton Beach Airport

Update a link
 
Copyright © AirNav, LLC. All rights reserved. Privacy Policy  Contact